createdAt,value
2024-01-14T00:01:31.141Z,98764.55
2024-01-14T00:03:57.913Z,98761.30
2024-01-14T00:06:25.343Z,98755.17
2024-01-14T00:08:52.118Z,98757.44
2024-01-14T00:11:18.802Z,98752.38
2024-01-14T00:13:45.459Z,98755.64
2024-01-14T00:16:12.090Z,98748.98
2024-01-14T00:18:38.834Z,98749.33
2024-01-14T00:21:06.356Z,98743.43
2024-01-14T00:23:33.092Z,98744.50
2024-01-14T00:25:59.737Z,98736.02
2024-01-14T00:28:26.343Z,98737.58
2024-01-14T00:30:53.103Z,98733.16
2024-01-14T00:33:19.932Z,98730.75
2024-01-14T00:35:46.708Z,98725.81
2024-01-14T00:38:15.209Z,98724.08
2024-01-14T00:40:42.559Z,98720.40
2024-01-14T00:43:09.281Z,98718.84
2024-01-14T00:45:36.049Z,98715.65
2024-01-14T00:48:03.461Z,98717.54
2024-01-14T00:50:31.783Z,98711.35
2024-01-14T00:52:58.657Z,98703.89
2024-01-14T00:55:25.505Z,98701.92
2024-01-14T00:57:52.201Z,98698.26
2024-01-14T01:00:19.501Z,98696.64
2024-01-14T01:02:46.541Z,98689.54
2024-01-14T01:05:13.455Z,98684.28
2024-01-14T01:07:40.497Z,98684.63
2024-01-14T01:10:11.621Z,98677.69
2024-01-14T01:12:38.380Z,98671.63
2024-01-14T01:15:09.036Z,98670.03
2024-01-14T01:17:36.114Z,98655.02
2024-01-14T01:20:04.188Z,98651.44
2024-01-14T01:22:30.911Z,98647.95
2024-01-14T01:24:57.554Z,98645.04
2024-01-14T01:27:24.252Z,98639.55
2024-01-14T01:29:50.946Z,98637.30
2024-01-14T01:32:17.808Z,98631.82
2024-01-14T01:34:45.339Z,98632.89
2024-01-14T01:37:13.021Z,98629.29
2024-01-14T01:39:39.648Z,98628.81
2024-01-14T01:42:06.857Z,98621.98
2024-01-14T01:44:37.182Z,98620.58
2024-01-14T01:47:04.923Z,98617.73
2024-01-14T01:49:33.145Z,98614.31
2024-01-14T01:52:01.794Z,98614.89
2024-01-14T01:54:30.548Z,98610.35
2024-01-14T01:56:58.419Z,98603.98
2024-01-14T01:59:25.915Z,98599.99
2024-01-14T02:01:54.242Z,98602.25
2024-01-14T02:04:20.925Z,98597.89
2024-01-14T02:06:48.086Z,98597.55
2024-01-14T02:09:14.801Z,98591.92
2024-01-14T02:11:41.533Z,98589.52
2024-01-14T02:14:08.187Z,98587.58
2024-01-14T02:16:34.779Z,98581.55
2024-01-14T02:19:03.246Z,98578.02
2024-01-14T02:21:37.190Z,98577.67
2024-01-14T02:24:10.405Z,98573.73
2024-01-14T02:26:37.048Z,98568.04
2024-01-14T02:29:05.351Z,98558.93
2024-01-14T02:31:33.593Z,98555.70
2024-01-14T02:34:00.464Z,98555.84
2024-01-14T02:36:27.328Z,98553.05
2024-01-14T02:38:54.074Z,98552.64
2024-01-14T02:41:20.750Z,98547.13
2024-01-14T02:43:47.342Z,98541.40
2024-01-14T02:46:14.088Z,98539.49
2024-01-14T02:48:40.767Z,98538.86
2024-01-14T02:51:07.551Z,98534.20
2024-01-14T02:53:34.445Z,98537.61
2024-01-14T02:56:01.041Z,98529.95
2024-01-14T02:58:27.688Z,98523.60
2024-01-14T03:00:55.840Z,98527.23
2024-01-14T03:03:22.980Z,98522.84
2024-01-14T03:05:49.852Z,98515.98
2024-01-14T03:08:19.027Z,98518.38
2024-01-14T03:10:46.239Z,98511.02
2024-01-14T03:13:17.616Z,98511.52
2024-01-14T03:19:10.269Z,98509.61
2024-01-14T03:21:36.960Z,98507.46
2024-01-14T03:24:05.194Z,98509.17
2024-01-14T03:26:31.945Z,98505.83
2024-01-14T03:28:58.572Z,98504.30
2024-01-14T03:31:25.384Z,98501.77
2024-01-14T03:33:52.378Z,98498.77
2024-01-14T03:36:19.105Z,98500.09
2024-01-14T03:38:45.769Z,98499.18
2024-01-14T03:41:12.865Z,98494.90
2024-01-14T03:43:39.526Z,98489.46
2024-01-14T03:46:06.256Z,98491.33
2024-01-14T03:48:33.001Z,98490.14
2024-01-14T03:50:59.805Z,98486.91
2024-01-14T03:53:26.512Z,98478.83
2024-01-14T03:55:53.133Z,98480.97
2024-01-14T03:58:19.767Z,98481.73
2024-01-14T04:00:46.507Z,98478.31
2024-01-14T04:03:13.354Z,98472.14
2024-01-14T04:05:40.110Z,98467.21
2024-01-14T04:08:07.968Z,98466.48
2024-01-14T04:10:34.679Z,98464.80
2024-01-14T04:13:01.374Z,98468.23
2024-01-14T04:15:27.988Z,98467.46
2024-01-14T04:17:54.734Z,98465.88
2024-01-14T04:20:21.405Z,98458.44
2024-01-14T04:22:48.055Z,98458.24
2024-01-14T04:25:14.730Z,98457.20
2024-01-14T04:27:41.413Z,98453.46
2024-01-14T04:30:09.359Z,98449.69
2024-01-14T04:32:36.573Z,98445.88
2024-01-14T04:35:05.195Z,98443.80
2024-01-14T04:37:32.468Z,98443.55
2024-01-14T04:39:59.086Z,98439.84
2024-01-14T04:42:26.157Z,98441.64
2024-01-14T04:44:52.904Z,98442.02
2024-01-14T04:47:19.538Z,98438.93
2024-01-14T04:49:46.303Z,98436.95
2024-01-14T04:52:13.147Z,98432.59
2024-01-14T04:54:39.836Z,98436.13
2024-01-14T04:57:06.511Z,98434.98
2024-01-14T04:59:33.642Z,98435.65
2024-01-14T05:02:00.286Z,98433.47
2024-01-14T05:04:26.981Z,98437.11
2024-01-14T05:06:55.079Z,98436.31
2024-01-14T05:09:23.174Z,98435.66
2024-01-14T05:11:50.020Z,98432.05
2024-01-14T05:14:16.702Z,98428.33
2024-01-14T05:16:43.460Z,98422.08
2024-01-14T05:19:10.493Z,98427.17
2024-01-14T05:21:37.557Z,98430.08
2024-01-14T05:24:04.392Z,98430.81
2024-01-14T05:26:31.416Z,98427.65
2024-01-14T05:29:01.112Z,98429.31
2024-01-14T05:31:29.365Z,98432.20
2024-01-14T05:33:56.406Z,98426.70
2024-01-14T05:36:24.474Z,98424.92
2024-01-14T05:38:51.115Z,98418.48
2024-01-14T05:41:17.784Z,98421.63
2024-01-14T05:43:44.397Z,98420.20
2024-01-14T05:46:11.030Z,98421.75
2024-01-14T05:48:37.782Z,98419.79
2024-01-14T05:51:04.902Z,98420.93
2024-01-14T05:53:31.525Z,98417.73
2024-01-14T05:55:59.177Z,98421.83
2024-01-14T05:58:25.880Z,98414.05
2024-01-14T06:00:52.725Z,98413.92
2024-01-14T06:03:19.629Z,98414.46
2024-01-14T06:05:46.448Z,98410.27
2024-01-14T06:08:13.195Z,98405.85
2024-01-14T06:10:40.634Z,98410.24
2024-01-14T06:13:07.432Z,98409.68
2024-01-14T06:15:34.439Z,98406.76
2024-01-14T06:18:01.404Z,98403.50
2024-01-14T06:20:28.540Z,98403.50
2024-01-14T06:22:55.214Z,98406.57
2024-01-14T06:25:21.883Z,98405.23
2024-01-14T06:27:48.648Z,98407.67
2024-01-14T06:30:15.801Z,98406.89
2024-01-14T06:32:42.788Z,98410.95
2024-01-14T06:35:09.606Z,98415.39
2024-01-14T06:37:37.594Z,98418.39
2024-01-14T06:40:06.335Z,98417.81
2024-01-14T06:42:33.101Z,98420.34
2024-01-14T06:44:59.918Z,98415.94
2024-01-14T06:47:26.548Z,98414.42
2024-01-14T06:49:59.530Z,98413.88
2024-01-14T06:52:34.184Z,98415.17
2024-01-14T06:55:00.828Z,98410.52
2024-01-14T06:57:27.562Z,98408.63
2024-01-14T06:59:54.208Z,98412.02
2024-01-14T07:02:20.844Z,98413.63
2024-01-14T07:04:47.585Z,98418.40
2024-01-14T07:07:14.279Z,98414.70
2024-01-14T07:09:41.007Z,98413.68
2024-01-14T07:12:07.806Z,98409.56
2024-01-14T07:14:34.508Z,98408.60
2024-01-14T07:17:01.227Z,98409.11
2024-01-14T07:19:28.023Z,98414.25
2024-01-14T07:21:55.127Z,98416.72
2024-01-14T07:24:21.769Z,98412.10
2024-01-14T07:26:48.637Z,98411.02
2024-01-14T07:29:15.440Z,98407.30
2024-01-14T07:31:42.241Z,98408.31
2024-01-14T07:34:10.053Z,98416.30
2024-01-14T07:36:36.838Z,98410.53
2024-01-14T07:39:04.570Z,98416.64
2024-01-14T07:41:31.598Z,98407.05
2024-01-14T07:43:58.209Z,98409.64
2024-01-14T07:46:24.834Z,98408.05
2024-01-14T07:48:52.509Z,98404.34
2024-01-14T07:51:21.895Z,98401.21
2024-01-14T07:53:50.265Z,98402.06
2024-01-14T07:56:17.004Z,98397.65
2024-01-14T07:58:44.374Z,98397.38
2024-01-14T08:01:11.770Z,98399.84
2024-01-14T08:03:38.821Z,98396.17
2024-01-14T08:06:06.519Z,98396.00
2024-01-14T08:08:33.321Z,98396.77
2024-01-14T08:10:59.945Z,98398.56
2024-01-14T08:13:26.572Z,98399.83
2024-01-14T08:16:00.421Z,98401.72
2024-01-14T08:18:31.701Z,98398.71
2024-01-14T08:20:59.484Z,98405.11
2024-01-14T08:23:26.173Z,98398.73
2024-01-14T08:25:52.824Z,98406.00
2024-01-14T08:28:19.488Z,98403.01
2024-01-14T08:30:46.862Z,98404.66
2024-01-14T08:33:13.926Z,98414.15
2024-01-14T08:35:40.844Z,98408.09
2024-01-14T08:38:07.442Z,98416.10
2024-01-14T08:40:34.076Z,98419.25
2024-01-14T08:43:00.704Z,98416.08
2024-01-14T08:45:27.437Z,98419.72
2024-01-14T08:47:54.363Z,98420.23
2024-01-14T08:50:21.825Z,98417.88
2024-01-14T08:52:48.558Z,98421.88
2024-01-14T08:55:15.643Z,98423.52
2024-01-14T08:57:42.882Z,98414.20
2024-01-14T09:00:11.122Z,98422.04
2024-01-14T09:02:38.338Z,98424.85
2024-01-14T09:05:06.741Z,98424.20
2024-01-14T09:07:37.763Z,98419.36
2024-01-14T09:10:04.936Z,98423.08
2024-01-14T09:12:31.813Z,98415.76
2024-01-14T09:14:58.490Z,98426.71
2024-01-14T09:17:25.280Z,98425.92
2024-01-14T09:19:52.294Z,98420.38
2024-01-14T09:22:19.135Z,98425.11
2024-01-14T09:24:47.245Z,98428.85
2024-01-14T09:27:14.692Z,98421.02
2024-01-14T09:29:41.567Z,98415.27
2024-01-14T09:32:09.867Z,98419.61
2024-01-14T09:34:36.854Z,98423.67
2024-01-14T09:37:03.981Z,98416.00
2024-01-14T09:39:30.625Z,98424.52
2024-01-14T09:42:19.925Z,98415.99
2024-01-14T09:44:47.973Z,98414.81
2024-01-14T09:47:17.530Z,98414.41
2024-01-14T09:49:44.752Z,98411.93
2024-01-14T09:52:12.387Z,98417.29
2024-01-14T09:54:39.123Z,98414.50
2024-01-14T09:57:09.806Z,98419.89
2024-01-14T09:59:38.349Z,98429.51
2024-01-14T10:02:07.124Z,98431.26
2024-01-14T10:04:36.089Z,98423.55
2024-01-14T10:07:03.241Z,98417.10
2024-01-14T10:09:30.397Z,98419.36
2024-01-14T10:11:57.150Z,98417.99
2024-01-14T10:14:27.903Z,98420.30
2024-01-14T10:16:58.839Z,98417.10
2024-01-14T10:19:26.117Z,98412.63
2024-01-14T10:22:14.010Z,98412.10
2024-01-14T10:24:50.505Z,98415.34
2024-01-14T10:27:33.699Z,98410.52
2024-01-14T10:30:15.234Z,98414.16
2024-01-14T10:33:16.611Z,98408.27
2024-01-14T10:35:31.354Z,98410.21
2024-01-14T10:37:59.103Z,98409.21
2024-01-14T10:40:26.164Z,98412.38
2024-01-14T10:42:53.842Z,98416.02
2024-01-14T10:45:21.221Z,98417.70
2024-01-14T10:47:49.057Z,98422.17
2024-01-14T10:50:18.424Z,98420.95
2024-01-14T10:52:51.105Z,98418.04
2024-01-14T10:55:41.626Z,98417.99
2024-01-14T10:58:09.519Z,98410.44
2024-01-14T11:00:39.613Z,98417.20
2024-01-14T11:03:08.515Z,98418.88
2024-01-14T11:05:36.101Z,98414.18
2024-01-14T11:08:05.798Z,98415.18
2024-01-14T11:10:33.490Z,98416.43
2024-01-14T11:13:10.602Z,98419.22
2024-01-14T11:15:44.253Z,98414.55
2024-01-14T11:18:25.787Z,98422.42
2024-01-14T11:21:12.898Z,98417.13
2024-01-14T11:23:48.726Z,98417.00
2024-01-14T11:26:15.511Z,98409.54
2024-01-14T11:28:46.022Z,98410.11
2024-01-14T11:31:12.815Z,98415.73
2024-01-14T11:33:42.003Z,98410.71
2024-01-14T11:36:10.862Z,98409.96
2024-01-14T11:38:39.549Z,98407.64
2024-01-14T11:41:29.215Z,98398.90
2024-01-14T11:44:10.144Z,98397.27
2024-01-14T11:46:40.612Z,98397.23
2024-01-14T11:52:03.930Z,98406.98
2024-01-14T11:54:33.125Z,98400.04
2024-01-14T11:57:02.465Z,98399.39
2024-01-14T11:59:41.081Z,98394.55
2024-01-14T12:02:16.974Z,98402.09
2024-01-14T12:04:49.864Z,98401.64
2024-01-14T12:07:22.643Z,98405.80
2024-01-14T12:09:56.912Z,98405.77
2024-01-14T12:12:26.000Z,98401.56
2024-01-14T12:14:52.981Z,98406.13
2024-01-14T12:17:20.547Z,98399.24
2024-01-14T12:20:00.285Z,98406.44
2024-01-14T12:22:30.276Z,98408.35
2024-01-14T12:24:57.093Z,98411.23
2024-01-14T12:27:24.074Z,98408.41
2024-01-14T12:29:50.781Z,98420.68
2024-01-14T12:32:17.610Z,98417.81
2024-01-14T12:34:45.131Z,98411.11
2024-01-14T12:37:13.806Z,98411.08
2024-01-14T12:39:41.373Z,98414.55
2024-01-14T12:42:08.305Z,98410.96
2024-01-14T12:44:45.284Z,98414.89
2024-01-14T12:47:12.831Z,98410.39
2024-01-14T12:49:40.231Z,98410.55
2024-01-14T12:52:09.259Z,98411.85
2024-01-14T12:54:36.782Z,98417.49
2024-01-14T12:57:13.627Z,98413.15
2024-01-14T12:59:46.975Z,98419.16
2024-01-14T13:02:16.638Z,98418.96
2024-01-14T13:04:44.668Z,98419.63
2024-01-14T13:07:13.823Z,98424.27
2024-01-14T13:09:41.928Z,98426.96
2024-01-14T13:12:09.425Z,98421.31
2024-01-14T13:14:36.210Z,98425.29
2024-01-14T13:17:03.044Z,98431.35
2024-01-14T13:19:30.228Z,98435.79
2024-01-14T13:21:57.210Z,98439.95
2024-01-14T13:24:24.292Z,98438.74
2024-01-14T13:26:51.632Z,98431.45
2024-01-14T13:29:19.475Z,98438.01
2024-01-14T13:31:46.574Z,98442.00
2024-01-14T13:34:16.687Z,98444.71
2024-01-14T13:36:43.725Z,98449.27
2024-01-14T13:39:10.607Z,98444.46
2024-01-14T13:41:37.299Z,98454.38
2024-01-14T13:44:12.907Z,98449.48
2024-01-14T13:46:45.656Z,98450.20
2024-01-14T13:49:12.793Z,98451.20
2024-01-14T13:51:40.261Z,98446.04
2024-01-14T13:54:13.055Z,98450.44
2024-01-14T13:56:42.373Z,98453.20
2024-01-14T13:59:10.636Z,98456.30
2024-01-14T14:01:39.276Z,98458.55
2024-01-14T14:04:06.625Z,98460.70
2024-01-14T14:06:37.411Z,98456.36
2024-01-14T14:09:07.754Z,98451.25
2024-01-14T14:11:35.271Z,98448.05
2024-01-14T14:14:02.147Z,98449.23
2024-01-14T14:16:39.035Z,98454.45
2024-01-14T14:19:09.187Z,98463.75
2024-01-14T14:21:50.602Z,98468.77
2024-01-14T14:24:28.302Z,98468.27
2024-01-14T14:26:55.580Z,98469.08
2024-01-14T14:29:25.174Z,98473.91
2024-01-14T14:31:53.073Z,98470.58
2024-01-14T14:34:21.072Z,98475.50
2024-01-14T14:36:49.479Z,98478.73
2024-01-14T14:39:16.853Z,98481.10
2024-01-14T14:41:44.058Z,98481.33
2024-01-14T14:44:11.887Z,98481.90
2024-01-14T14:46:40.120Z,98483.49
2024-01-14T14:49:06.963Z,98480.00
2024-01-14T14:51:39.079Z,98483.27
2024-01-14T14:54:12.384Z,98489.45
2024-01-14T14:56:39.948Z,98490.33
2024-01-14T14:59:06.845Z,98483.09
2024-01-14T15:01:42.039Z,98482.17
2024-01-14T15:04:13.229Z,98484.45
2024-01-14T15:06:41.967Z,98485.63
2024-01-14T15:09:09.704Z,98482.90
2024-01-14T15:11:40.237Z,98482.84
2024-01-14T15:14:08.582Z,98477.00
2024-01-14T15:16:35.520Z,98482.41
2024-01-14T15:19:03.341Z,98479.61
2024-01-14T15:21:30.493Z,98483.00
2024-01-14T15:23:57.481Z,98477.80
2024-01-14T15:26:24.276Z,98478.53
2024-01-14T15:28:51.036Z,98475.27
2024-01-14T15:31:19.807Z,98478.11
2024-01-14T15:33:47.033Z,98478.20
2024-01-14T15:36:15.872Z,98475.32
2024-01-14T15:38:45.788Z,98474.67
2024-01-14T15:41:12.657Z,98471.53
2024-01-14T15:43:40.459Z,98473.80
2024-01-14T15:46:10.687Z,98472.92
2024-01-14T15:48:41.824Z,98475.50
2024-01-14T15:51:14.167Z,98471.59
2024-01-14T15:53:43.662Z,98469.74
2024-01-14T15:56:13.797Z,98468.93
2024-01-14T15:58:44.941Z,98461.00
2024-01-14T16:01:15.525Z,98453.35
2024-01-14T16:03:46.039Z,98454.09
2024-01-14T16:06:16.150Z,98451.67
2024-01-14T16:08:47.979Z,98446.70
2024-01-14T16:11:15.985Z,98446.82
2024-01-14T16:13:43.338Z,98447.96
2024-01-14T16:16:12.842Z,98445.10
2024-01-14T16:18:41.518Z,98447.11
2024-01-14T16:21:09.436Z,98448.56
2024-01-14T16:23:40.378Z,98451.16
2024-01-14T16:26:10.455Z,98446.73
2024-01-14T16:28:38.807Z,98445.80
2024-01-14T16:31:12.759Z,98441.94
2024-01-14T16:33:45.165Z,98441.38
2024-01-14T16:36:18.338Z,98443.33
2024-01-14T16:38:48.504Z,98438.20
2024-01-14T16:41:18.201Z,98443.91
2024-01-14T16:43:48.486Z,98440.64
2024-01-14T16:46:19.346Z,98437.14
2024-01-14T16:48:51.598Z,98436.55
2024-01-14T16:51:23.591Z,98435.75
2024-01-14T16:53:54.137Z,98443.23
2024-01-14T16:56:26.778Z,98445.30
2024-01-14T16:58:56.591Z,98444.61
2024-01-14T17:01:27.838Z,98446.73
2024-01-14T17:04:04.752Z,98451.50
2024-01-14T17:06:37.109Z,98449.05
2024-01-14T17:09:10.669Z,98447.88
2024-01-14T17:11:44.217Z,98451.39
2024-01-14T17:14:18.456Z,98447.34
2024-01-14T17:17:02.424Z,98444.77
2024-01-14T17:19:36.863Z,98442.98
2024-01-14T17:22:09.041Z,98439.21
2024-01-14T17:24:40.401Z,98442.95
2024-01-14T17:27:15.538Z,98438.73
2024-01-14T17:29:48.331Z,98427.98
2024-01-14T17:32:33.199Z,98428.59
2024-01-14T17:35:12.417Z,98424.63
2024-01-14T17:37:56.314Z,98420.50
2024-01-14T17:40:30.779Z,98416.67
2024-01-14T17:43:07.884Z,98421.67
2024-01-14T17:45:49.054Z,98416.66
2024-01-14T17:48:28.549Z,98422.02
2024-01-14T17:51:35.552Z,98420.85
2024-01-14T17:54:04.942Z,98421.67
2024-01-14T17:59:27.044Z,98416.53
2024-01-14T18:09:30.214Z,98417.60
2024-01-14T18:11:59.768Z,98414.79
2024-01-14T18:14:26.901Z,98410.52
2024-01-14T18:16:57.727Z,98410.98
2024-01-14T18:19:30.104Z,98403.13
2024-01-14T18:21:59.315Z,98409.14
2024-01-14T18:24:34.015Z,98406.25
2024-01-14T18:27:01.427Z,98404.09
2024-01-14T18:29:28.722Z,98402.83
2024-01-14T18:31:59.143Z,98400.48
2024-01-14T18:34:27.678Z,98399.52
2024-01-14T18:36:55.580Z,98394.02
2024-01-14T18:39:22.510Z,98391.67
2024-01-14T18:41:54.184Z,98385.59
2024-01-14T18:44:21.120Z,98386.04
2024-01-14T18:46:48.184Z,98386.89
2024-01-14T18:49:15.239Z,98382.00
2024-01-14T18:51:43.945Z,98379.24
2024-01-14T18:54:13.505Z,98374.02
2024-01-14T18:56:46.799Z,98371.58
2024-01-14T18:59:13.781Z,98371.92
2024-01-14T19:01:43.922Z,98372.24
2024-01-14T19:04:10.798Z,98370.65
2024-01-14T19:06:37.637Z,98369.52
2024-01-14T19:09:07.545Z,98368.48
2024-01-14T19:11:41.794Z,98359.52
2024-01-14T19:14:12.774Z,98350.23
2024-01-14T19:16:39.935Z,98350.36
2024-01-14T19:19:06.989Z,98349.56
2024-01-14T19:21:36.487Z,98348.63
2024-01-14T19:24:05.192Z,98342.64
2024-01-14T19:26:35.186Z,98346.10
2024-01-14T19:29:06.835Z,98344.98
2024-01-14T19:31:35.162Z,98341.44
2024-01-14T19:34:03.887Z,98337.64
2024-01-14T19:36:35.028Z,98339.03
2024-01-14T19:39:04.761Z,98339.10
2024-01-14T19:41:31.914Z,98335.70
2024-01-14T19:44:01.464Z,98335.38
2024-01-14T19:46:29.235Z,98331.45
2024-01-14T19:48:57.841Z,98330.39
2024-01-14T19:51:30.481Z,98331.11
2024-01-14T19:53:58.451Z,98328.19
2024-01-14T19:56:32.949Z,98332.66
2024-01-14T19:59:03.745Z,98332.92
2024-01-14T20:01:32.262Z,98331.52
2024-01-14T20:04:00.085Z,98327.98
2024-01-14T20:06:32.285Z,98325.46
2024-01-14T20:09:03.125Z,98328.16
2024-01-14T20:11:31.024Z,98320.20
2024-01-14T20:14:00.535Z,98322.63
2024-01-14T20:16:29.830Z,98322.23
2024-01-14T20:18:58.360Z,98311.43
2024-01-14T20:21:25.970Z,98303.23
2024-01-14T20:23:54.836Z,98296.80
2024-01-14T20:26:25.444Z,98295.95
2024-01-14T20:28:58.796Z,98299.03
2024-01-14T20:31:25.516Z,98298.92
2024-01-14T20:33:54.429Z,98295.65
2024-01-14T20:36:21.244Z,98293.93
2024-01-14T20:38:48.146Z,98292.55
2024-01-14T20:41:15.963Z,98289.84
2024-01-14T20:43:42.625Z,98283.44
2024-01-14T20:46:09.766Z,98279.26
2024-01-14T20:48:40.217Z,98281.31
2024-01-14T20:51:07.103Z,98278.71
2024-01-14T20:53:35.604Z,98279.26
2024-01-14T20:56:02.252Z,98278.94
2024-01-14T20:58:29.050Z,98282.52
2024-01-14T21:00:58.062Z,98276.50
2024-01-14T21:03:24.898Z,98274.21
2024-01-14T21:05:51.808Z,98275.67
2024-01-14T21:08:19.019Z,98271.05
2024-01-14T21:10:45.673Z,98274.90
2024-01-14T21:13:12.367Z,98272.94
2024-01-14T21:15:39.138Z,98261.17
2024-01-14T21:18:06.225Z,98258.54
2024-01-14T21:20:33.064Z,98257.24
2024-01-14T21:23:01.558Z,98255.16
2024-01-14T21:25:28.335Z,98254.77
2024-01-14T21:28:02.772Z,98251.89
2024-01-14T21:30:29.761Z,98247.45
2024-01-14T21:32:57.415Z,98248.02
2024-01-14T21:35:24.170Z,98245.81
2024-01-14T21:37:50.793Z,98242.75
2024-01-14T21:40:18.720Z,98241.45
2024-01-14T21:42:47.218Z,98239.91
2024-01-14T21:45:17.995Z,98235.19
2024-01-14T21:47:47.372Z,98232.94
2024-01-14T21:50:14.380Z,98229.50
2024-01-14T21:52:41.013Z,98231.91
2024-01-14T21:55:09.793Z,98229.58
2024-01-14T21:57:40.493Z,98222.09
2024-01-14T22:00:08.915Z,98215.50
2024-01-14T22:02:38.529Z,98215.39
2024-01-14T22:05:06.379Z,98217.23
2024-01-14T22:07:36.061Z,98217.18
2024-01-14T22:10:02.744Z,98216.23
2024-01-14T22:12:29.692Z,98214.27
2024-01-14T22:14:56.562Z,98207.62
2024-01-14T22:17:23.543Z,98206.80
2024-01-14T22:19:51.033Z,98209.83
2024-01-14T22:22:18.120Z,98203.67
2024-01-14T22:24:45.460Z,98202.95
2024-01-14T22:27:12.576Z,98201.16
2024-01-14T22:29:39.325Z,98197.40
2024-01-14T22:32:07.086Z,98196.13
2024-01-14T22:34:34.591Z,98194.06
2024-01-14T22:37:01.513Z,98191.48
2024-01-14T22:39:28.548Z,98193.36
2024-01-14T22:41:55.319Z,98193.42
2024-01-14T22:44:22.275Z,98186.41
2024-01-14T22:46:49.202Z,98189.55
2024-01-14T22:49:16.193Z,98189.27
2024-01-14T22:51:46.416Z,98186.45
2024-01-14T22:54:14.528Z,98183.89
2024-01-14T22:56:44.633Z,98181.09
2024-01-14T22:59:11.746Z,98180.56
2024-01-14T23:01:39.000Z,98176.72
2024-01-14T23:04:05.956Z,98172.46
2024-01-14T23:06:33.020Z,98172.30
2024-01-14T23:09:00.696Z,98168.55
2024-01-14T23:11:27.340Z,98163.16
2024-01-14T23:13:53.954Z,98160.73
2024-01-14T23:16:21.453Z,98158.34
2024-01-14T23:18:49.164Z,98156.92
2024-01-14T23:21:16.095Z,98158.36
2024-01-14T23:23:42.706Z,98161.31
2024-01-14T23:26:09.355Z,98155.61
2024-01-14T23:28:35.957Z,98150.06
2024-01-14T23:31:03.576Z,98150.27
2024-01-14T23:33:31.202Z,98142.52
2024-01-14T23:35:58.054Z,98134.54
2024-01-14T23:38:24.800Z,98135.80
2024-01-14T23:40:51.935Z,98129.06
2024-01-14T23:43:18.568Z,98130.23
2024-01-14T23:45:45.384Z,98124.83
2024-01-14T23:48:12.321Z,98117.48
2024-01-14T23:50:39.062Z,98112.05
2024-01-14T23:53:06.015Z,98106.83
2024-01-14T23:55:32.632Z,98103.60
2024-01-14T23:57:59.263Z,98100.27
